Time;durP1;ratioP1;P1;durP2;ratioP2;P2;SDS_P1;SDS_P2;PMS_P1;PMS_P2;Temp;Humidity;BMP_temperature;BMP_pressure;BME280_temperature;BME280_humidity;BME280_pressure;Samples;Min_cycle;Max_cycle;Signal;HPM_P1;HPM_P2
2022/11/09 00:00:36;;;;;;;2.45;1.02;;;14.80;1.00;;;;;;5083397;28;20267;-83
2022/11/09 00:03:02;;;;;;;2.17;1.00;;;14.80;1.00;;;;;;5084145;28;20291;-84
2022/11/09 00:05:27;;;;;;;2.30;1.20;;;14.70;1.00;;;;;;5082793;28;20717;-83
2022/11/09 00:07:53;;;;;;;1.45;0.90;;;14.70;1.00;;;;;;5084319;28;20188;-84
2022/11/09 00:10:19;;;;;;;3.10;1.30;;;14.70;1.00;;;;;;5084653;28;20553;-85
2022/11/09 00:12:44;;;;;;;1.58;1.13;;;14.70;1.00;;;;;;5082267;28;20283;-83
2022/11/09 00:15:10;;;;;;;2.90;1.25;;;14.70;1.00;;;;;;5081249;28;20222;-83
2022/11/09 00:17:36;;;;;;;2.00;1.30;;;14.80;1.00;;;;;;5082199;28;20212;-82
2022/11/09 00:20:02;;;;;;;2.10;1.00;;;14.90;1.00;;;;;;5083652;28;20415;-85
2022/11/09 00:22:27;;;;;;;2.55;1.30;;;14.90;1.00;;;;;;5085102;28;20215;-85
2022/11/09 00:24:53;;;;;;;3.13;1.20;;;14.90;1.00;;;;;;5086151;28;20205;-85
2022/11/09 00:27:18;;;;;;;2.40;1.52;;;14.90;1.00;;;;;;5084582;28;20181;-83
2022/11/09 00:29:44;;;;;;;2.00;1.27;;;14.90;1.00;;;;;;5085998;28;20279;-85
2022/11/09 00:32:09;;;;;;;1.50;1.40;;;14.70;1.00;;;;;;5084606;28;20709;-84
2022/11/09 00:34:35;;;;;;;2.88;1.40;;;14.70;1.00;;;;;;5083993;28;20208;-85
2022/11/09 00:37:01;;;;;;;2.97;1.40;;;14.80;1.00;;;;;;5084104;28;20212;-84
2022/11/09 00:39:26;;;;;;;3.28;1.33;;;14.80;1.00;;;;;;5084258;28;20185;-84
2022/11/09 00:41:52;;;;;;;2.65;1.10;;;14.80;1.00;;;;;;5084327;28;20181;-83
2022/11/09 00:44:17;;;;;;;1.42;1.20;;;14.90;1.00;;;;;;5085684;28;20200;-85
2022/11/09 00:46:43;;;;;;;3.25;1.30;;;14.90;1.00;;;;;;5084997;28;20335;-86
2022/11/09 00:49:08;;;;;;;1.63;1.20;;;14.90;1.00;;;;;;5085539;28;20187;-83
2022/11/09 00:51:34;;;;;;;2.53;1.20;;;15.00;1.00;;;;;;5083631;28;20980;-84
2022/11/09 00:54:00;;;;;;;1.67;1.17;;;15.00;1.00;;;;;;5083754;28;20212;-86
2022/11/09 00:56:25;;;;;;;1.40;1.02;;;14.90;1.00;;;;;;5084434;28;20216;-86
2022/11/09 00:58:53;;;;;;;1.33;1.23;;;14.90;1.00;;;;;;5084048;28;20187;-83
2022/11/09 01:01:19;;;;;;;2.40;1.13;;;14.80;1.00;;;;;;5083590;28;20781;-86
2022/11/09 01:03:45;;;;;;;2.83;1.25;;;14.80;1.00;;;;;;5084376;28;20185;-85
2022/11/09 01:06:22;;;;;;;3.20;1.33;;;14.70;1.00;;;;;;5085281;28;20185;-86
2022/11/09 01:08:49;;;;;;;1.50;1.10;;;14.80;1.00;;;;;;5084151;28;20185;-85
2022/11/09 01:11:16;;;;;;;1.27;1.00;;;14.80;1.00;;;;;;5084026;28;20200;-86
2022/11/09 01:13:43;;;;;;;1.20;1.10;;;14.80;1.00;;;;;;5084176;28;20189;-83
2022/11/09 01:16:11;;;;;;;2.03;1.00;;;14.70;1.00;;;;;;5085610;28;20698;-85
2022/11/09 01:18:38;;;;;;;1.17;1.08;;;14.70;1.00;;;;;;5083745;28;20189;-83
2022/11/09 01:21:06;;;;;;;2.30;1.20;;;14.60;1.00;;;;;;5086774;28;20177;-84
2022/11/09 01:23:32;;;;;;;4.55;1.58;;;14.50;1.00;;;;;;5088672;28;20185;-85
2022/11/09 01:25:59;;;;;;;3.25;1.25;;;14.60;1.00;;;;;;5088636;28;20185;-87
2022/11/09 01:28:25;;;;;;;3.30;1.35;;;14.60;1.00;;;;;;5087283;28;20185;-85
2022/11/09 01:30:50;;;;;;;2.00;1.17;;;14.50;1.00;;;;;;5086744;28;20263;-84
2022/11/09 01:33:16;;;;;;;1.92;1.30;;;14.50;1.00;;;;;;5086224;28;20185;-85
2022/11/09 01:35:41;;;;;;;1.52;1.00;;;14.50;1.00;;;;;;5085271;28;20212;-84
2022/11/09 01:38:08;;;;;;;1.17;1.05;;;14.40;1.00;;;;;;5085339;28;20196;-85
2022/11/09 01:40:36;;;;;;;2.42;1.17;;;14.30;1.00;;;;;;5085320;28;20248;-84
2022/11/09 01:43:19;;;;;;;3.25;1.20;;;14.30;1.00;;;;;;5086087;28;20238;-85
2022/11/09 01:45:50;;;;;;;2.28;1.10;;;14.40;1.00;;;;;;5088382;28;20228;-83
2022/11/09 01:48:22;;;;;;;2.13;1.08;;;14.30;1.00;;;;;;5087006;28;20200;-85
2022/11/09 01:50:58;;;;;;;1.42;1.30;;;14.20;1.00;;;;;;5085866;28;20211;-83
2022/11/09 01:53:35;;;;;;;1.25;0.93;;;14.10;1.00;;;;;;5086551;28;20244;-83
2022/11/09 01:56:05;;;;;;;1.80;1.08;;;14.10;1.00;;;;;;5086254;28;20193;-85
2022/11/09 01:58:44;;;;;;;3.00;1.27;;;14.10;1.00;;;;;;5085864;28;20181;-83
2022/11/09 02:01:12;;;;;;;1.20;1.10;;;14.10;1.00;;;;;;5086020;28;20563;-86
2022/11/09 02:03:49;;;;;;;2.15;1.10;;;14.00;1.00;;;;;;5085061;28;20183;-83
2022/11/09 02:06:19;;;;;;;1.95;1.15;;;14.00;1.00;;;;;;5088399;28;20192;-83
2022/11/09 02:08:46;;;;;;;1.23;0.90;;;14.00;1.00;;;;;;5089159;28;20193;-86
2022/11/09 02:11:15;;;;;;;2.70;1.15;;;13.80;1.00;;;;;;5088365;28;20196;-83
2022/11/09 02:13:56;;;;;;;3.17;1.00;;;14.00;1.00;;;;;;5085936;28;20196;-83
2022/11/09 02:16:23;;;;;;;1.10;1.00;;;14.00;1.00;;;;;;5088701;28;20221;-86
2022/11/09 02:18:57;;;;;;;1.88;1.15;;;13.90;1.00;;;;;;5094074;28;20177;-83
2022/11/09 02:21:25;;;;;;;1.23;1.00;;;13.90;1.00;;;;;;5085128;28;20839;-83
2022/11/09 02:23:51;;;;;;;1.77;1.10;;;13.80;1.00;;;;;;5085427;28;20181;-83
2022/11/09 02:26:42;;;;;;;1.55;1.10;;;13.90;1.00;;;;;;5085018;28;20192;-82
2022/11/09 02:29:10;;;;;;;1.35;1.00;;;13.90;1.00;;;;;;5084789;28;20275;-84
2022/11/09 02:31:41;;;;;;;1.50;1.00;;;13.90;1.00;;;;;;5085007;28;20185;-83
2022/11/09 02:34:11;;;;;;;1.83;1.00;;;14.10;1.00;;;;;;5086439;28;20292;-85
2022/11/09 02:36:37;;;;;;;1.65;1.20;;;14.10;1.00;;;;;;5084489;28;20196;-83
2022/11/09 02:39:03;;;;;;;1.75;1.02;;;14.10;1.00;;;;;;5084776;28;20187;-83
2022/11/09 02:41:31;;;;;;;1.20;1.05;;;14.10;1.00;;;;;;5085731;28;20757;-83
2022/11/09 02:43:58;;;;;;;1.02;1.00;;;14.20;1.00;;;;;;5084240;28;20204;-84
2022/11/09 02:46:29;;;;;;;1.65;1.13;;;14.30;1.00;;;;;;5084092;28;20669;-85
2022/11/09 02:48:55;;;;;;;1.40;1.30;;;14.30;1.00;;;;;;5084006;28;20196;-86
2022/11/09 02:51:21;;;;;;;1.77;1.17;;;14.30;1.00;;;;;;5085181;28;20555;-83
2022/11/09 02:53:46;;;;;;;2.28;1.13;;;14.20;1.00;;;;;;5085238;28;20188;-84
2022/11/09 02:56:12;;;;;;;1.70;1.15;;;14.10;1.00;;;;;;5083825;28;20197;-82
2022/11/09 02:58:37;;;;;;;1.55;0.93;;;14.10;1.00;;;;;;5084536;28;20226;-82
2022/11/09 03:01:03;;;;;;;2.33;1.13;;;14.20;1.00;;;;;;5085010;28;20264;-83
2022/11/09 03:03:29;;;;;;;1.10;1.00;;;14.20;1.00;;;;;;5082589;28;20333;-84
2022/11/09 03:05:54;;;;;;;2.30;1.30;;;14.20;1.00;;;;;;5084510;28;20220;-83
2022/11/09 03:08:20;;;;;;;1.10;1.00;;;14.20;1.00;;;;;;5082310;28;20185;-83
2022/11/09 03:10:45;;;;;;;2.55;1.10;;;14.20;1.00;;;;;;5082730;28;20554;-82
2022/11/09 03:13:11;;;;;;;1.50;1.20;;;14.20;1.00;;;;;;5084898;28;20563;-85
2022/11/09 03:15:37;;;;;;;3.15;1.70;;;14.30;1.00;;;;;;5085692;28;20213;-85
2022/11/09 03:18:03;;;;;;;1.70;1.02;;;14.20;1.00;;;;;;5084400;28;20565;-83
2022/11/09 03:20:28;;;;;;;1.17;1.00;;;14.20;1.00;;;;;;5084730;28;20189;-84
2022/11/09 03:22:58;;;;;;;2.03;1.20;;;14.20;1.00;;;;;;5086145;28;20780;-83
2022/11/09 03:25:24;;;;;;;1.73;1.15;;;14.30;1.00;;;;;;5085496;28;20854;-83
2022/11/09 03:27:55;;;;;;;1.65;1.35;;;14.30;1.00;;;;;;5084217;28;20234;-85
2022/11/09 03:30:21;;;;;;;1.25;1.00;;;14.30;1.00;;;;;;5083982;28;20689;-83
2022/11/09 03:32:46;;;;;;;3.00;1.20;;;14.30;1.00;;;;;;5085490;28;20189;-84
2022/11/09 03:35:12;;;;;;;3.03;1.35;;;14.30;1.00;;;;;;5084607;28;20270;-85
2022/11/09 03:37:37;;;;;;;2.72;1.65;;;14.40;1.00;;;;;;5087406;28;20319;-85
2022/11/09 03:40:03;;;;;;;3.08;1.23;;;14.40;1.00;;;;;;5087818;28;20182;-83
2022/11/09 03:42:29;;;;;;;1.88;1.13;;;14.40;1.00;;;;;;5088214;28;20181;-83
2022/11/09 03:44:54;;;;;;;2.80;1.20;;;14.50;1.00;;;;;;5086847;28;20209;-83
2022/11/09 03:47:20;;;;;;;1.55;1.30;;;14.40;1.00;;;;;;5086836;28;20214;-84
2022/11/09 03:49:46;;;;;;;2.53;1.42;;;14.30;1.00;;;;;;5086697;28;20191;-83
2022/11/09 03:52:11;;;;;;;1.52;1.17;;;14.40;1.00;;;;;;5086062;28;20192;-82
2022/11/09 03:54:39;;;;;;;3.22;1.30;;;14.30;1.00;;;;;;5086014;28;20287;-82
2022/11/09 03:57:04;;;;;;;1.30;1.20;;;14.30;1.00;;;;;;5086344;28;20720;-85
2022/11/09 03:59:30;;;;;;;1.90;1.20;;;14.30;1.00;;;;;;5085757;28;20181;-86
2022/11/09 04:01:55;;;;;;;1.52;1.25;;;14.30;1.00;;;;;;5086120;28;20230;-83
2022/11/09 04:04:21;;;;;;;1.40;1.30;;;14.20;1.00;;;;;;5084633;28;20197;-85
2022/11/09 04:06:47;;;;;;;2.45;1.15;;;14.20;1.00;;;;;;5085557;28;20666;-84
2022/11/09 04:09:12;;;;;;;1.45;1.20;;;14.20;1.00;;;;;;5085340;28;20271;-86
2022/11/09 04:11:38;;;;;;;2.88;1.35;;;14.20;1.00;;;;;;5085177;28;20197;-82
2022/11/09 04:14:03;;;;;;;2.35;1.30;;;14.00;1.00;;;;;;5086433;28;21230;-85
2022/11/09 04:16:29;;;;;;;2.65;1.23;;;14.10;1.00;;;;;;5084854;28;20213;-82
2022/11/09 04:18:54;;;;;;;1.13;1.02;;;14.10;1.00;;;;;;5085320;28;20244;-83
2022/11/09 04:21:20;;;;;;;1.33;1.00;;;14.10;1.00;;;;;;5085192;28;20188;-83
2022/11/09 04:23:48;;;;;;;1.85;0.98;;;14.00;1.00;;;;;;5085006;28;20658;-85
2022/11/09 04:26:13;;;;;;;2.95;1.25;;;14.00;1.00;;;;;;5085089;28;20679;-84
2022/11/09 04:28:39;;;;;;;1.58;1.17;;;13.90;1.00;;;;;;5084825;28;20185;-84
2022/11/09 04:31:05;;;;;;;1.65;1.05;;;13.80;1.00;;;;;;5084994;28;20271;-87
2022/11/09 04:33:30;;;;;;;2.33;1.08;;;13.90;1.00;;;;;;5084920;28;20185;-85
2022/11/09 04:36:01;;;;;;;1.75;1.00;;;13.90;1.00;;;;;;5084600;28;20196;-83
2022/11/09 04:38:27;;;;;;;1.38;1.20;;;13.90;1.00;;;;;;5084625;28;20551;-84
2022/11/09 04:40:52;;;;;;;1.90;1.02;;;14.00;1.00;;;;;;5086987;28;20176;-84
2022/11/09 04:43:18;;;;;;;1.33;1.17;;;14.00;1.00;;;;;;5085905;28;20188;-83
2022/11/09 04:45:44;;;;;;;2.85;1.40;;;13.70;1.00;;;;;;5085084;28;20299;-83
2022/11/09 04:48:11;;;;;;;2.47;1.35;;;13.80;1.00;;;;;;5085311;28;20188;-84
2022/11/09 04:50:37;;;;;;;2.55;1.30;;;13.70;1.00;;;;;;5085421;28;20238;-83
2022/11/09 04:53:04;;;;;;;1.73;1.40;;;13.70;1.00;;;;;;5087950;28;20616;-84
2022/11/09 04:55:30;;;;;;;1.98;1.20;;;13.60;1.00;;;;;;5085671;28;20300;-83
2022/11/09 04:57:55;;;;;;;1.23;1.13;;;13.60;1.00;;;;;;5084787;28;20642;-84
2022/11/09 05:00:21;;;;;;;1.73;1.10;;;13.60;1.00;;;;;;5086437;28;20184;-84
2022/11/09 05:02:47;;;;;;;1.48;1.10;;;13.60;1.00;;;;;;5085063;28;20187;-84
2022/11/09 05:05:12;;;;;;;1.83;1.02;;;13.40;1.00;;;;;;5085401;28;20552;-83
2022/11/09 05:07:38;;;;;;;1.92;1.20;;;13.50;1.00;;;;;;5084432;28;20185;-83
2022/11/09 05:10:04;;;;;;;2.58;1.20;;;13.50;1.00;;;;;;5084530;28;20193;-84
2022/11/09 05:12:29;;;;;;;2.88;1.00;;;13.40;1.00;;;;;;5084438;28;20666;-85
2022/11/09 05:14:55;;;;;;;1.55;1.10;;;13.50;1.00;;;;;;5087010;28;20870;-84
2022/11/09 05:17:20;;;;;;;2.17;1.20;;;13.40;1.00;;;;;;5088705;28;20323;-84
2022/11/09 05:19:46;;;;;;;1.77;1.00;;;13.40;1.00;;;;;;5088628;28;20193;-84
2022/11/09 05:24:55;;;;;;;2.05;1.10;;;13.50;1.00;;;;;;5088528;28;20265;-86
2022/11/09 05:27:21;;;;;;;2.45;0.90;;;13.50;1.00;;;;;;5086473;28;20650;-83
2022/11/09 05:29:46;;;;;;;2.63;0.90;;;13.50;1.00;;;;;;5085891;28;20192;-85
2022/11/09 05:32:12;;;;;;;1.10;1.02;;;13.50;1.00;;;;;;5084471;28;20517;-85
2022/11/09 05:34:38;;;;;;;1.60;1.10;;;13.50;1.00;;;;;;5084598;28;20709;-87
2022/11/09 05:37:03;;;;;;;0.93;0.82;;;13.50;1.00;;;;;;5085791;28;20212;-86
2022/11/09 05:39:29;;;;;;;1.20;0.90;;;13.70;1.00;;;;;;5085771;28;20208;-84
2022/11/09 05:41:54;;;;;;;1.30;1.00;;;13.50;1.00;;;;;;5084462;28;20184;-86
2022/11/09 05:44:20;;;;;;;1.77;1.00;;;13.50;1.00;;;;;;5084504;28;20212;-86
2022/11/09 05:46:45;;;;;;;1.33;1.00;;;13.50;1.00;;;;;;5084356;28;20732;-84
2022/11/09 05:49:11;;;;;;;1.17;1.00;;;13.60;1.00;;;;;;5084823;28;20189;-83
2022/11/09 05:51:36;;;;;;;2.50;1.13;;;13.40;1.00;;;;;;5084212;28;20415;-85
2022/11/09 05:54:02;;;;;;;2.05;0.93;;;13.60;1.00;;;;;;5084444;28;20276;-86
2022/11/09 05:56:28;;;;;;;1.73;0.80;;;13.40;1.00;;;;;;5084416;28;20228;-84
2022/11/09 05:58:53;;;;;;;1.45;1.35;;;13.50;1.00;;;;;;5084355;28;20546;-83
2022/11/09 06:01:19;;;;;;;2.38;1.40;;;13.40;1.00;;;;;;5084483;28;20201;-85
2022/11/09 06:03:44;;;;;;;2.63;1.05;;;13.50;1.00;;;;;;5085052;28;20196;-84
2022/11/09 06:06:12;;;;;;;1.65;1.08;;;13.60;1.00;;;;;;5083660;28;20276;-85
2022/11/09 06:08:38;;;;;;;5.30;3.30;;;13.50;1.00;;;;;;5077707;28;20181;-85
2022/11/09 06:11:07;;;;;;;1.20;0.93;;;13.50;1.00;;;;;;5086126;28;20582;-86
2022/11/09 06:13:33;;;;;;;1.90;1.45;;;13.50;1.00;;;;;;5085595;28;20238;-82
2022/11/09 06:16:00;;;;;;;2.72;1.23;;;13.40;1.00;;;;;;5083993;28;20200;-84
2022/11/09 06:18:29;;;;;;;1.00;1.00;;;13.40;1.00;;;;;;5083751;28;20738;-85
2022/11/09 06:20:57;;;;;;;1.00;0.90;;;13.60;1.00;;;;;;5084097;28;20185;-83
2022/11/09 06:23:24;;;;;;;1.65;0.90;;;13.50;1.00;;;;;;5084196;28;20234;-86
2022/11/09 06:26:01;;;;;;;1.40;1.10;;;13.50;1.00;;;;;;5083422;28;20203;-85
2022/11/09 06:28:26;;;;;;;1.15;0.90;;;13.50;1.00;;;;;;5083741;28;20598;-86
2022/11/09 06:30:55;;;;;;;1.90;1.00;;;13.30;1.00;;;;;;5083635;28;20307;-86
2022/11/09 06:33:21;;;;;;;1.17;1.08;;;13.50;1.00;;;;;;5080448;28;20654;-87
2022/11/09 06:35:46;;;;;;;1.17;0.88;;;13.50;1.00;;;;;;5083290;28;20442;-86
2022/11/09 06:38:12;;;;;;;1.00;0.82;;;13.70;1.00;;;;;;5083135;28;20236;-87
2022/11/09 06:40:38;;;;;;;0.95;0.70;;;13.40;1.00;;;;;;5083263;28;20184;-83
2022/11/09 06:43:04;;;;;;;1.73;1.02;;;13.60;1.00;;;;;;5083331;28;20612;-86
2022/11/09 06:45:30;;;;;;;1.10;1.00;;;13.60;1.00;;;;;;5082917;28;20231;-85
2022/11/09 06:47:57;;;;;;;1.48;0.90;;;13.50;1.00;;;;;;5082847;28;20185;-85
2022/11/09 06:50:24;;;;;;;1.00;0.98;;;13.50;1.00;;;;;;5085480;28;20191;-85
2022/11/09 06:52:55;;;;;;;1.80;0.90;;;13.40;1.00;;;;;;5082731;28;20432;-85
2022/11/09 06:55:20;;;;;;;1.27;0.80;;;13.40;1.00;;;;;;5083134;28;20205;-85
2022/11/09 06:57:46;;;;;;;1.90;0.90;;;13.30;1.00;;;;;;5083306;28;20209;-84
2022/11/09 07:00:12;;;;;;;0.88;0.88;;;13.40;1.00;;;;;;5084790;28;20685;-86
2022/11/09 07:02:37;;;;;;;2.25;1.25;;;13.40;1.00;;;;;;5074561;28;20180;-86
2022/11/09 07:05:03;;;;;;;0.90;0.85;;;13.40;1.00;;;;;;5082805;28;20201;-83
2022/11/09 07:07:30;;;;;;;1.65;1.02;;;13.40;1.00;;;;;;5084164;28;20189;-83
2022/11/09 07:09:56;;;;;;;1.70;1.02;;;13.30;1.00;;;;;;5082992;28;20193;-85
2022/11/09 07:12:22;;;;;;;1.23;0.93;;;13.50;1.00;;;;;;5082697;28;20189;-86
2022/11/09 07:14:47;;;;;;;1.80;1.10;;;13.30;1.00;;;;;;5082272;28;20246;-84
2022/11/09 07:17:13;;;;;;;1.65;0.90;;;13.30;1.00;;;;;;5082242;28;20600;-85
2022/11/09 07:19:38;;;;;;;1.65;0.90;;;13.50;1.00;;;;;;5083955;28;20176;-85
2022/11/09 07:22:04;;;;;;;1.15;1.00;;;13.50;1.00;;;;;;5082406;28;20185;-84
2022/11/09 07:24:30;;;;;;;1.80;0.93;;;13.30;1.00;;;;;;5082207;28;20204;-83
2022/11/09 07:26:55;;;;;;;2.38;1.05;;;13.40;1.00;;;;;;5083037;28;20180;-86
2022/11/09 07:29:21;;;;;;;1.77;1.00;;;13.40;1.00;;;;;;5082726;28;20184;-85
2022/11/09 07:31:46;;;;;;;2.05;1.02;;;13.40;1.00;;;;;;5082552;28;20181;-84
2022/11/09 07:34:12;;;;;;;1.20;1.05;;;13.40;1.00;;;;;;5082131;28;20273;-82
2022/11/09 07:36:37;;;;;;;1.40;1.10;;;13.40;1.00;;;;;;5082186;28;20489;-85
2022/11/09 07:39:03;;;;;;;1.58;1.10;;;13.50;1.00;;;;;;5083211;28;20397;-85
2022/11/09 07:41:29;;;;;;;1.23;0.98;;;13.70;1.00;;;;;;5082403;28;20670;-85
2022/11/09 07:43:54;;;;;;;3.58;1.40;;;13.60;1.00;;;;;;5083554;28;20569;-85
2022/11/09 07:46:20;;;;;;;2.20;1.40;;;13.60;1.00;;;;;;5082218;28;20181;-85
2022/11/09 07:48:45;;;;;;;2.58;1.20;;;13.60;1.00;;;;;;5081979;28;20722;-77
2022/11/09 07:51:11;;;;;;;1.23;1.10;;;13.60;1.00;;;;;;5084083;28;20185;-80
2022/11/09 07:53:37;;;;;;;1.80;0.90;;;13.60;1.00;;;;;;5083331;28;20211;-78
2022/11/09 07:56:04;;;;;;;1.95;1.10;;;13.60;1.00;;;;;;5084753;28;20227;-78
2022/11/09 07:58:30;;;;;;;1.52;1.20;;;13.50;1.00;;;;;;5069905;22;20226;-84
2022/11/09 08:00:55;;;;;;;3.05;0.90;;;13.60;1.00;;;;;;5042394;28;20235;-83
2022/11/09 08:03:23;;;;;;;1.27;0.90;;;13.60;1.00;;;;;;5048010;28;20193;-85
2022/11/09 08:05:50;;;;;;;1.85;0.93;;;13.50;1.00;;;;;;5047484;28;20210;-86
2022/11/09 08:08:16;;;;;;;1.35;1.05;;;13.60;1.00;;;;;;5049196;28;20198;-87
2022/11/09 08:10:42;;;;;;;2.03;0.88;;;13.70;1.00;;;;;;5047740;28;20208;-87
2022/11/09 08:13:13;;;;;;;1.15;1.00;;;13.70;1.00;;;;;;5047957;28;20190;-88
2022/11/09 08:15:40;;;;;;;1.00;0.90;;;13.70;1.00;;;;;;5046507;28;20868;-84
2022/11/09 08:18:10;;;;;;;1.52;0.85;;;13.60;1.00;;;;;;5046669;28;20886;-85
2022/11/09 08:20:36;;;;;;;1.63;0.70;;;13.80;1.00;;;;;;5048810;28;20208;-84
2022/11/09 08:23:02;;;;;;;2.15;0.77;;;13.80;1.00;;;;;;5048523;28;20189;-86
2022/11/09 08:25:28;;;;;;;1.73;1.13;;;13.80;1.00;;;;;;5047009;28;20210;-88
2022/11/09 08:27:55;;;;;;;2.25;1.08;;;13.90;1.00;;;;;;5046935;28;20605;-83
2022/11/09 08:30:21;;;;;;;1.80;0.80;;;14.00;1.00;;;;;;5047940;28;20183;-86
2022/11/09 08:32:48;;;;;;;0.80;0.80;;;14.10;1.00;;;;;;5049219;28;20670;-86
2022/11/09 08:35:16;;;;;;;1.00;0.90;;;14.40;1.00;;;;;;5048232;28;20210;-88
2022/11/09 08:37:43;;;;;;;1.38;0.75;;;14.30;1.00;;;;;;5048193;28;20654;-86
2022/11/09 08:40:09;;;;;;;1.45;0.70;;;14.40;1.00;;;;;;5045905;28;20178;-88
2022/11/09 08:42:36;;;;;;;1.38;0.80;;;14.40;1.00;;;;;;5047484;28;20186;-84
2022/11/09 08:45:01;;;;;;;1.20;0.82;;;14.50;1.00;;;;;;5045960;28;20449;-88
2022/11/09 08:47:28;;;;;;;0.93;0.90;;;14.50;1.00;;;;;;5046286;28;20276;-86
2022/11/09 08:49:53;;;;;;;1.35;0.70;;;14.60;1.00;;;;;;5047056;28;20182;-83
2022/11/09 08:52:19;;;;;;;1.40;0.95;;;14.70;1.00;;;;;;5048503;28;20189;-82
2022/11/09 08:54:44;;;;;;;1.63;1.20;;;14.70;1.00;;;;;;5050443;28;20725;-86
2022/11/09 08:57:10;;;;;;;1.52;0.80;;;14.70;1.00;;;;;;5048265;28;20241;-86
2022/11/09 08:59:36;;;;;;;1.45;0.80;;;14.70;1.00;;;;;;5049417;28;20179;-84
2022/11/09 09:02:02;;;;;;;2.15;0.90;;;14.80;1.00;;;;;;5048971;28;20190;-83
2022/11/09 09:04:28;;;;;;;1.05;0.73;;;14.80;1.00;;;;;;5048993;28;20229;-84
2022/11/09 09:06:54;;;;;;;1.27;0.90;;;14.80;1.00;;;;;;5048651;28;20186;-87
2022/11/09 09:09:20;;;;;;;2.15;0.90;;;15.00;1.00;;;;;;5048594;28;20662;-85
2022/11/09 09:11:46;;;;;;;0.65;0.65;;;14.90;1.00;;;;;;5050014;28;20189;-84
2022/11/09 09:14:12;;;;;;;1.02;0.93;;;14.80;1.00;;;;;;5048215;28;20717;-82
2022/11/09 09:16:37;;;;;;;1.98;0.80;;;14.80;1.00;;;;;;5048816;28;20228;-87
2022/11/09 09:19:03;;;;;;;0.80;0.80;;;14.80;1.00;;;;;;5048415;28;20186;-87
2022/11/09 09:21:29;;;;;;;0.93;0.60;;;14.80;1.00;;;;;;5049386;28;20565;-85
2022/11/09 09:23:55;;;;;;;1.45;0.65;;;14.90;1.00;;;;;;5049126;28;20520;-85
2022/11/09 09:26:20;;;;;;;0.73;0.60;;;14.90;1.00;;;;;;5049718;28;20182;-83
2022/11/09 09:28:46;;;;;;;1.25;0.70;;;15.00;1.00;;;;;;5050516;28;20182;-86
2022/11/09 09:31:12;;;;;;;5.28;1.10;;;15.00;1.00;;;;;;5050530;28;20178;-85
2022/11/09 09:33:37;;;;;;;0.60;0.60;;;15.00;1.00;;;;;;5050699;28;20187;-82
2022/11/09 09:36:04;;;;;;;1.25;1.10;;;15.00;1.00;;;;;;5049396;28;20675;-85
2022/11/09 09:38:29;;;;;;;1.25;0.88;;;14.90;1.00;;;;;;5046682;28;20245;-84
2022/11/09 09:41:04;;;;;;;1.90;0.70;;;15.00;1.00;;;;;;5047097;28;20190;-85
2022/11/09 09:43:40;;;;;;;2.63;0.85;;;15.00;1.00;;;;;;5047138;28;20182;-84
2022/11/09 09:46:18;;;;;;;1.67;0.70;;;15.00;1.00;;;;;;5065324;28;20280;-85
2022/11/09 09:48:52;;;;;;;1.10;0.60;;;15.00;1.00;;;;;;5046317;28;20646;-85
2022/11/09 09:51:19;;;;;;;1.38;0.70;;;15.10;1.00;;;;;;5046491;28;20187;-82
2022/11/09 09:54:01;;;;;;;9.77;1.10;;;15.20;1.00;;;;;;5048291;28;20217;-85
2022/11/09 09:56:33;;;;;;;2.22;0.60;;;15.10;1.00;;;;;;5049859;28;20198;-85
2022/11/09 09:59:09;;;;;;;0.60;0.60;;;15.20;1.00;;;;;;5044828;28;20198;-86
2022/11/09 10:01:43;;;;;;;1.48;0.60;;;15.20;1.00;;;;;;5062027;28;20205;-83
2022/11/09 10:04:14;;;;;;;0.68;0.60;;;15.30;1.00;;;;;;5046525;28;20293;-83
2022/11/09 10:06:57;;;;;;;0.73;0.70;;;15.30;1.00;;;;;;5062712;28;20268;-83
2022/11/09 10:09:32;;;;;;;1.40;0.60;;;15.30;1.00;;;;;;5047209;28;20553;-84
2022/11/09 10:12:23;;;;;;;0.85;0.60;;;15.30;1.00;;;;;;5046052;28;20189;-85
2022/11/09 10:15:12;;;;;;;1.58;0.60;;;15.40;1.00;;;;;;5048076;28;20336;-88
2022/11/09 10:17:57;;;;;;;0.80;0.50;;;15.40;1.00;;;;;;5048768;28;20194;-86
2022/11/09 10:20:47;;;;;;;0.50;0.50;;;15.40;1.00;;;;;;5048093;28;20190;-87
2022/11/09 10:23:28;;;;;;;1.05;0.70;;;15.30;1.00;;;;;;5048497;28;20235;-86
2022/11/09 10:26:02;;;;;;;0.77;0.68;;;15.30;1.00;;;;;;5045617;28;20710;-86
2022/11/09 10:28:28;;;;;;;1.10;0.57;;;15.40;1.00;;;;;;5049405;28;20240;-89
2022/11/09 10:30:55;;;;;;;1.08;0.60;;;15.60;1.00;;;;;;5049194;28;20189;-85
2022/11/09 10:33:22;;;;;;;1.40;0.85;;;15.50;1.00;;;;;;5049141;28;20729;-86
2022/11/09 10:36:01;;;;;;;0.82;0.50;;;15.60;1.00;;;;;;5046706;28;20214;-85
2022/11/09 10:38:36;;;;;;;0.85;0.60;;;15.70;1.00;;;;;;5048175;28;20301;-86
2022/11/09 10:41:18;;;;;;;0.50;0.50;;;16.00;1.00;;;;;;5050245;28;20193;-84
2022/11/09 10:43:44;;;;;;;1.15;0.50;;;16.10;1.00;;;;;;5049391;28;20182;-82
2022/11/09 10:46:09;;;;;;;0.95;0.73;;;16.10;1.00;;;;;;5049342;28;20185;-82
2022/11/09 10:48:38;;;;;;;0.43;0.43;;;16.10;1.00;;;;;;5046368;28;20190;-83
2022/11/09 10:51:24;;;;;;;0.77;0.47;;;15.90;1.00;;;;;;5047664;28;20243;-83
2022/11/09 10:54:13;;;;;;;0.82;0.57;;;15.90;1.00;;;;;;5045319;28;20186;-86
2022/11/09 10:56:45;;;;;;;1.10;0.60;;;15.80;1.00;;;;;;5043515;28;20710;-86
2022/11/09 10:59:43;;;;;;;1.08;0.60;;;15.90;1.00;;;;;;5042878;28;20444;-84
2022/11/09 11:02:24;;;;;;;1.20;0.63;;;15.80;1.00;;;;;;5010509;28;20272;-85
2022/11/09 11:05:16;;;;;;;3.38;0.82;;;15.70;1.00;;;;;;5060341;28;20205;-83
2022/11/09 11:07:41;;;;;;;2.05;0.77;;;15.70;1.00;;;;;;5033079;28;20610;-85
2022/11/09 11:10:17;;;;;;;0.60;0.50;;;15.70;1.00;;;;;;5044095;28;20209;-83
2022/11/09 11:12:45;;;;;;;0.73;0.50;;;15.80;1.00;;;;;;5041161;28;20671;-84
2022/11/09 11:15:40;;;;;;;1.40;0.50;;;15.90;1.00;;;;;;5043753;28;20722;-86
2022/11/09 11:18:24;;;;;;;1.05;0.60;;;15.90;1.00;;;;;;5044451;28;20226;-86
2022/11/09 11:21:10;;;;;;;0.82;0.73;;;15.90;1.00;;;;;;5044011;28;20216;-84
2022/11/09 11:23:36;;;;;;;0.63;0.55;;;15.90;1.00;;;;;;5045180;28;20196;-83
2022/11/09 11:26:25;;;;;;;1.08;0.70;;;15.90;1.00;;;;;;5044029;28;20178;-86
2022/11/09 11:28:58;;;;;;;0.70;0.70;;;15.90;1.00;;;;;;5043839;28;20197;-82
2022/11/09 11:31:24;;;;;;;1.27;0.60;;;15.80;1.00;;;;;;5043444;28;20190;-86
2022/11/09 11:33:49;;;;;;;1.17;0.60;;;16.00;1.00;;;;;;5045105;28;20186;-84
2022/11/09 11:36:27;;;;;;;3.42;0.60;;;15.90;1.00;;;;;;5043450;28;20190;-82
2022/11/09 11:39:00;;;;;;;0.98;0.70;;;15.90;1.00;;;;;;5043462;28;20182;-83
2022/11/09 11:41:57;;;;;;;1.77;0.50;;;15.80;1.00;;;;;;5045227;28;20190;-83
2022/11/09 11:44:43;;;;;;;2.22;0.50;;;15.90;1.00;;;;;;5044248;28;20194;-84
2022/11/09 11:47:14;;;;;;;1.08;0.43;;;15.80;1.00;;;;;;5044350;28;20692;-83
2022/11/09 11:50:27;;;;;;;0.85;0.47;;;15.90;1.00;;;;;;5045882;28;20187;-81
2022/11/09 11:53:11;;;;;;;0.38;0.32;;;15.60;1.00;;;;;;5043281;28;20561;-81
2022/11/09 11:56:03;;;;;;;0.80;0.50;;;15.70;1.00;;;;;;5043785;28;20202;-81
2022/11/09 11:58:44;;;;;;;1.10;0.50;;;15.40;1.00;;;;;;5045341;28;20202;-82
2022/11/09 12:01:21;;;;;;;0.60;0.40;;;15.30;1.00;;;;;;5045655;28;20173;-82
2022/11/09 12:04:44;;;;;;;0.63;0.40;;;15.20;1.00;;;;;;5044217;28;20221;-80
2022/11/09 12:07:22;;;;;;;0.82;0.60;;;15.20;1.00;;;;;;5021002;28;20577;-80
2022/11/09 12:10:11;;;;;;;1.75;1.10;;;15.40;1.00;;;;;;5044044;28;20189;-82
2022/11/09 12:12:55;;;;;;;3.20;2.10;;;15.40;1.00;;;;;;5038504;28;20190;-81
2022/11/09 12:15:44;;;;;;;2.65;1.30;;;15.40;1.00;;;;;;5045178;28;20198;-80
2022/11/09 12:18:13;;;;;;;5.75;3.33;;;15.50;1.00;;;;;;5045015;28;20217;-80
2022/11/09 12:21:21;;;;;;;3.88;2.22;;;15.60;1.00;;;;;;5047231;28;20182;-81
2022/11/09 12:24:05;;;;;;;2.80;1.33;;;15.70;1.00;;;;;;5048225;28;20194;-81
2022/11/09 12:26:40;;;;;;;5.13;2.10;;;15.80;1.00;;;;;;5048164;28;20182;-79
2022/11/09 12:29:26;;;;;;;3.63;2.03;;;15.50;1.00;;;;;;5050056;28;20193;-80
2022/11/09 12:32:19;;;;;;;4.72;2.00;;;15.50;1.00;;;;;;5050101;28;20718;-80
2022/11/09 12:35:08;;;;;;;2.80;1.65;;;15.40;1.00;;;;;;5049953;28;20537;-81
2022/11/09 12:37:55;;;;;;;5.90;3.00;;;15.50;1.00;;;;;;5041804;28;20297;-83
2022/11/09 12:40:28;;;;;;;9.65;3.60;;;15.40;1.00;;;;;;5062651;28;20178;-80
2022/11/09 12:42:54;;;;;;;7.82;3.72;;;15.50;1.00;;;;;;5045989;28;20185;-81
2022/11/09 12:45:40;;;;;;;3.25;1.75;;;15.40;1.00;;;;;;5045237;28;20807;-84
2022/11/09 12:48:28;;;;;;;2.08;0.93;;;15.50;1.00;;;;;;5043370;28;20198;-81
2022/11/09 12:50:54;;;;;;;2.65;1.30;;;15.60;1.00;;;;;;5047044;28;20304;-83
2022/11/09 12:53:23;;;;;;;3.10;1.30;;;15.60;1.00;;;;;;5046366;28;20194;-80
2022/11/09 12:55:48;;;;;;;4.55;1.50;;;15.60;1.00;;;;;;5045298;28;20707;-80
2022/11/09 12:58:26;;;;;;;1.83;0.95;;;15.70;1.00;;;;;;5044182;28;20221;-80
2022/11/09 13:01:05;;;;;;;4.63;1.90;;;15.80;1.00;;;;;;5045007;28;20236;-81
2022/11/09 13:03:37;;;;;;;1.67;0.90;;;15.90;1.00;;;;;;5044832;28;20190;-81
2022/11/09 13:06:12;;;;;;;2.67;1.25;;;15.70;1.00;;;;;;5045144;28;20178;-81
2022/11/09 13:08:39;;;;;;;6.93;2.83;;;15.70;1.00;;;;;;5061893;28;20227;-82
2022/11/09 13:11:19;;;;;;;9.00;3.95;;;15.80;1.00;;;;;;5046622;28;20185;-81
2022/11/09 13:13:45;;;;;;;6.72;3.10;;;15.70;1.00;;;;;;5045852;28;20468;-82